createdAt,value
2022-08-31T00:00:38.626Z,1.20
2022-08-31T00:03:58.670Z,2.72
2022-08-31T00:07:00.216Z,2.25
2022-08-31T00:10:14.186Z,2.00
2022-08-31T00:13:16.425Z,2.20
2022-08-31T00:16:19.554Z,2.50
2022-08-31T00:19:21.302Z,1.90
2022-08-31T00:22:22.739Z,2.10
2022-08-31T00:25:24.411Z,2.92
2022-08-31T00:28:26.019Z,2.13
2022-08-31T00:31:27.587Z,2.67
2022-08-31T00:34:29.162Z,2.42
2022-08-31T00:37:30.601Z,3.75
2022-08-31T00:40:33.160Z,2.10
2022-08-31T00:43:47.918Z,1.52
2022-08-31T00:46:49.440Z,2.00
2022-08-31T00:49:52.514Z,6.72
2022-08-31T00:52:57.840Z,2.00
2022-08-31T00:55:59.548Z,2.42
2022-08-31T00:59:01.652Z,1.67
2022-08-31T01:02:04.450Z,2.65
2022-08-31T01:05:06.920Z,2.35
2022-08-31T01:08:08.953Z,1.83
2022-08-31T01:11:10.675Z,2.22
2022-08-31T01:14:12.606Z,2.85
2022-08-31T01:17:15.103Z,2.25
2022-08-31T01:20:31.542Z,1.95
2022-08-31T01:23:38.725Z,1.80
2022-08-31T01:26:40.728Z,2.38
2022-08-31T01:29:42.509Z,3.85
2022-08-31T01:32:43.965Z,1.65
2022-08-31T01:35:45.681Z,2.63
2022-08-31T01:38:52.878Z,2.63
2022-08-31T01:41:54.864Z,3.13
2022-08-31T01:44:56.338Z,2.65
2022-08-31T01:48:12.344Z,3.58
2022-08-31T01:51:17.398Z,2.70
2022-08-31T01:54:19.509Z,2.13
2022-08-31T01:57:21.807Z,1.73
2022-08-31T02:00:36.222Z,2.55
2022-08-31T02:03:37.719Z,3.50
2022-08-31T02:06:42.187Z,2.58
2022-08-31T02:09:43.623Z,2.67
2022-08-31T02:12:45.034Z,3.25
2022-08-31T02:15:46.580Z,3.63
2022-08-31T02:18:48.112Z,1.88
2022-08-31T02:21:49.539Z,5.35
2022-08-31T02:24:51.054Z,3.17
2022-08-31T02:27:52.481Z,3.22
2022-08-31T02:30:54.069Z,2.65
2022-08-31T02:33:55.564Z,5.20
2022-08-31T02:36:57.176Z,5.70
2022-08-31T02:39:59.277Z,6.35
2022-08-31T02:43:01.409Z,1.85
2022-08-31T02:46:03.317Z,2.83
2022-08-31T02:49:04.840Z,2.63
2022-08-31T02:52:06.387Z,2.15
2022-08-31T02:55:07.955Z,3.42
2022-08-31T02:58:11.169Z,3.10
2022-08-31T03:01:12.682Z,2.70
2022-08-31T03:04:14.288Z,3.95
2022-08-31T03:07:15.777Z,2.15
2022-08-31T03:10:21.735Z,2.63
2022-08-31T03:13:58.466Z,4.07
2022-08-31T03:17:00.435Z,3.28
2022-08-31T03:20:05.534Z,1.98
2022-08-31T03:23:07.047Z,4.40
2022-08-31T03:26:10.137Z,2.70
2022-08-31T03:29:13.312Z,3.47
2022-08-31T03:32:14.763Z,3.85
2022-08-31T03:35:18.009Z,2.22
2022-08-31T03:38:20.466Z,3.70
2022-08-31T03:41:24.986Z,2.80
2022-08-31T03:44:26.506Z,2.20
2022-08-31T03:47:28.362Z,2.90
2022-08-31T03:50:30.010Z,2.80
2022-08-31T03:53:31.621Z,3.10
2022-08-31T03:56:33.248Z,2.53
2022-08-31T03:59:34.828Z,3.15
2022-08-31T04:02:39.544Z,3.00
2022-08-31T04:05:44.225Z,4.38
2022-08-31T04:08:45.715Z,2.90
2022-08-31T04:11:47.129Z,2.85
2022-08-31T04:14:48.662Z,2.85
2022-08-31T04:17:55.820Z,3.70
2022-08-31T04:20:59.041Z,3.38
2022-08-31T04:24:01.594Z,3.33
2022-08-31T04:27:03.705Z,2.75
2022-08-31T04:30:07.633Z,1.95
2022-08-31T04:33:09.741Z,2.60
2022-08-31T04:36:15.114Z,3.40
2022-08-31T04:39:16.706Z,2.67
2022-08-31T04:42:18.157Z,3.25
2022-08-31T04:45:19.630Z,3.33
2022-08-31T04:48:21.098Z,3.97
2022-08-31T04:51:26.140Z,4.45
2022-08-31T04:54:27.660Z,3.92
2022-08-31T04:57:31.343Z,2.88
2022-08-31T05:00:32.802Z,2.60
2022-08-31T05:03:34.272Z,3.20
2022-08-31T05:06:39.358Z,3.33
2022-08-31T05:09:40.931Z,5.90
2022-08-31T05:12:44.337Z,3.03
2022-08-31T05:15:45.813Z,7.85
2022-08-31T05:18:49.294Z,3.13
2022-08-31T05:21:50.807Z,2.83
2022-08-31T05:24:52.311Z,3.72
2022-08-31T05:27:54.840Z,3.13
2022-08-31T05:30:57.851Z,4.15
2022-08-31T05:34:00.682Z,2.17
2022-08-31T05:37:02.339Z,3.35
2022-08-31T05:40:04.475Z,2.28
2022-08-31T05:43:06.107Z,3.20
2022-08-31T05:46:10.548Z,4.03
2022-08-31T05:49:12.173Z,2.15
2022-08-31T05:52:13.909Z,2.58
2022-08-31T05:55:16.317Z,2.65
2022-08-31T05:58:17.801Z,2.70
2022-08-31T06:01:23.970Z,3.05
2022-08-31T06:04:26.730Z,2.40
2022-08-31T06:07:28.606Z,2.00
2022-08-31T06:10:32.946Z,2.30
2022-08-31T06:13:34.349Z,4.20
2022-08-31T06:16:37.229Z,3.50
2022-08-31T06:19:39.162Z,3.13
2022-08-31T06:22:46.175Z,2.78
2022-08-31T06:25:47.629Z,4.40
2022-08-31T06:28:52.004Z,2.30
2022-08-31T06:31:53.757Z,2.30
2022-08-31T06:34:55.334Z,2.20
2022-08-31T06:37:56.859Z,2.80
2022-08-31T06:40:58.290Z,2.78
2022-08-31T06:44:00.778Z,3.22
2022-08-31T06:47:03.016Z,2.78
2022-08-31T06:50:05.036Z,4.45
2022-08-31T06:53:06.475Z,6.30
2022-08-31T06:56:16.505Z,5.22
2022-08-31T06:59:26.434Z,6.78
2022-08-31T07:02:29.840Z,6.30
2022-08-31T07:05:31.285Z,5.97
2022-08-31T07:08:32.842Z,4.78
2022-08-31T07:11:37.468Z,6.47
2022-08-31T07:14:40.511Z,4.72
2022-08-31T07:17:42.174Z,3.88
2022-08-31T07:20:43.642Z,3.72
2022-08-31T07:23:47.176Z,4.28
2022-08-31T07:26:54.406Z,7.25
2022-08-31T07:29:55.873Z,5.70
2022-08-31T07:32:57.307Z,3.58
2022-08-31T07:35:58.742Z,2.92
2022-08-31T07:39:18.944Z,4.68
2022-08-31T07:42:29.214Z,4.00
2022-08-31T07:45:34.465Z,4.45
2022-08-31T07:48:39.374Z,3.47
2022-08-31T07:51:50.180Z,4.65
2022-08-31T07:54:54.127Z,6.15
2022-08-31T07:57:56.768Z,5.30
2022-08-31T08:00:59.881Z,6.38
2022-08-31T08:04:02.304Z,6.95
2022-08-31T08:07:06.032Z,5.57
2022-08-31T08:10:14.004Z,5.80
2022-08-31T08:13:18.471Z,5.72
2022-08-31T08:16:20.863Z,5.72
2022-08-31T08:19:23.264Z,3.53
2022-08-31T08:22:41.903Z,3.55
2022-08-31T08:25:47.321Z,2.67
2022-08-31T08:28:50.253Z,3.42
2022-08-31T08:31:56.537Z,2.67
2022-08-31T08:34:58.438Z,4.50
2022-08-31T08:38:03.333Z,5.05
2022-08-31T08:41:14.810Z,5.90
2022-08-31T08:44:18.457Z,4.60
2022-08-31T08:47:24.775Z,4.07
2022-08-31T08:50:28.256Z,6.00
2022-08-31T08:53:32.125Z,4.35
2022-08-31T08:56:34.348Z,4.15
2022-08-31T08:59:35.913Z,5.55
2022-08-31T09:02:58.327Z,4.95
2022-08-31T09:06:09.667Z,6.95
2022-08-31T09:09:46.881Z,4.07
2022-08-31T09:13:14.408Z,4.13
2022-08-31T09:16:40.860Z,4.03
2022-08-31T09:20:00.340Z,3.53
2022-08-31T09:23:06.986Z,4.15
2022-08-31T09:26:11.158Z,5.07
2022-08-31T09:29:24.789Z,3.70
2022-08-31T09:32:31.365Z,5.85
2022-08-31T09:35:41.224Z,5.20
2022-08-31T09:38:46.914Z,4.10
2022-08-31T09:41:49.890Z,4.13
2022-08-31T09:44:51.505Z,5.30
2022-08-31T09:47:58.272Z,4.60
2022-08-31T09:51:02.864Z,5.65
2022-08-31T09:54:22.836Z,5.05
2022-08-31T09:57:50.474Z,4.00
2022-08-31T10:00:52.613Z,6.63
2022-08-31T10:04:12.147Z,6.03
2022-08-31T10:07:31.323Z,5.05
2022-08-31T10:10:37.631Z,4.93
2022-08-31T10:13:45.807Z,4.75
2022-08-31T10:16:53.177Z,5.82
2022-08-31T10:20:06.600Z,5.15
2022-08-31T10:23:28.134Z,5.70
2022-08-31T10:26:57.016Z,5.10
2022-08-31T10:30:18.253Z,3.85
2022-08-31T10:33:25.261Z,5.32
2022-08-31T10:36:33.112Z,4.13
2022-08-31T10:39:42.606Z,5.43
2022-08-31T10:43:09.299Z,5.90
2022-08-31T10:46:10.830Z,4.80
2022-08-31T10:49:12.311Z,5.13
2022-08-31T10:52:27.482Z,7.07
2022-08-31T10:55:46.793Z,5.85
2022-08-31T10:59:02.080Z,6.10
2022-08-31T11:02:31.277Z,5.22
2022-08-31T11:05:42.199Z,4.28
2022-08-31T11:09:08.273Z,5.50
2022-08-31T11:12:18.370Z,6.05
2022-08-31T11:15:25.912Z,6.35
2022-08-31T11:18:36.128Z,4.90
2022-08-31T11:21:51.002Z,4.70
2022-08-31T11:25:25.036Z,6.57
2022-08-31T11:28:35.743Z,10.40
2022-08-31T11:31:38.867Z,5.85
2022-08-31T11:34:51.337Z,6.53
2022-08-31T11:37:55.648Z,5.97
2022-08-31T11:44:08.972Z,6.40
2022-08-31T11:47:28.650Z,10.05
2022-08-31T11:50:36.403Z,7.10
2022-08-31T11:53:44.362Z,7.45
2022-08-31T11:56:47.416Z,5.80
2022-08-31T11:59:50.498Z,6.80
2022-08-31T12:03:10.882Z,6.80
2022-08-31T12:06:25.088Z,7.70
2022-08-31T12:09:44.985Z,7.18
2022-08-31T12:13:09.326Z,7.18
2022-08-31T12:16:23.674Z,7.75
2022-08-31T12:19:48.865Z,8.57
2022-08-31T12:23:30.852Z,5.65
2022-08-31T12:26:48.812Z,7.22
2022-08-31T12:29:50.303Z,7.88
2022-08-31T12:32:56.804Z,8.73
2022-08-31T12:36:12.144Z,10.07
2022-08-31T12:39:21.849Z,6.53
2022-08-31T12:42:23.736Z,7.32
2022-08-31T12:45:55.061Z,8.80
2022-08-31T12:49:02.710Z,6.88
2022-08-31T12:52:16.230Z,7.85
2022-08-31T12:55:26.811Z,7.70
2022-08-31T12:58:43.503Z,6.75
2022-08-31T13:01:49.318Z,7.75
2022-08-31T13:04:51.305Z,6.65
2022-08-31T13:07:53.536Z,8.55
2022-08-31T13:10:55.049Z,8.52
2022-08-31T13:14:08.512Z,9.25
2022-08-31T13:17:17.873Z,6.47
2022-08-31T13:20:20.421Z,9.05
2022-08-31T13:23:30.009Z,6.50
2022-08-31T13:26:35.880Z,6.15
2022-08-31T13:29:45.110Z,6.97
2022-08-31T13:32:51.052Z,6.40
2022-08-31T13:36:03.753Z,7.88
2022-08-31T13:39:12.845Z,9.00
2022-08-31T13:42:41.262Z,5.88
2022-08-31T13:45:58.548Z,7.70
2022-08-31T13:49:03.225Z,6.20
2022-08-31T13:52:07.762Z,8.30
2022-08-31T13:55:12.877Z,5.93
2022-08-31T13:58:31.463Z,5.78
2022-08-31T14:01:33.858Z,4.43
2022-08-31T14:04:49.508Z,7.53
2022-08-31T14:07:55.623Z,5.63
2022-08-31T14:10:57.152Z,5.82
2022-08-31T14:14:11.343Z,5.13
2022-08-31T14:17:17.700Z,5.93
2022-08-31T14:21:16.902Z,4.60
2022-08-31T14:24:12.298Z,5.32
2022-08-31T14:27:15.205Z,5.25
2022-08-31T14:30:16.755Z,4.85
2022-08-31T14:33:19.752Z,6.22
2022-08-31T14:36:23.688Z,4.10
2022-08-31T14:39:32.082Z,3.55
2022-08-31T14:42:37.353Z,6.22
2022-08-31T14:45:40.015Z,3.58
2022-08-31T14:48:44.115Z,5.32
2022-08-31T14:51:46.276Z,3.15
2022-08-31T14:54:48.070Z,2.67
2022-08-31T14:57:55.543Z,2.05
2022-08-31T15:01:00.260Z,3.17
2022-08-31T15:04:04.240Z,1.88
2022-08-31T15:07:09.526Z,2.97
2022-08-31T15:10:12.968Z,2.05
2022-08-31T15:13:14.578Z,1.85
2022-08-31T15:16:16.854Z,2.13
2022-08-31T15:19:19.004Z,3.00
2022-08-31T15:22:21.574Z,3.22
2022-08-31T15:25:25.853Z,3.78
2022-08-31T15:28:31.565Z,2.40
2022-08-31T15:31:33.074Z,2.38
2022-08-31T15:34:34.869Z,1.73
2022-08-31T15:37:36.379Z,5.20
2022-08-31T15:40:39.248Z,2.00
2022-08-31T15:43:44.310Z,1.83
2022-08-31T15:47:05.143Z,2.47
2022-08-31T15:50:07.733Z,2.10
2022-08-31T15:53:10.684Z,2.58
2022-08-31T15:56:12.243Z,2.70
2022-08-31T15:59:13.794Z,2.35
2022-08-31T16:02:20.281Z,2.00
2022-08-31T16:05:23.826Z,2.08
2022-08-31T16:08:27.865Z,2.95
2022-08-31T16:14:33.401Z,2.70
2022-08-31T16:17:34.900Z,3.08
2022-08-31T16:20:37.049Z,2.78
2022-08-31T16:23:39.628Z,2.28
2022-08-31T16:26:45.946Z,2.75
2022-08-31T16:29:47.532Z,2.95
2022-08-31T16:32:52.186Z,2.20
2022-08-31T16:35:53.943Z,2.80
2022-08-31T16:38:56.628Z,3.40
2022-08-31T16:41:58.158Z,2.70
2022-08-31T16:45:02.331Z,2.25
2022-08-31T16:48:22.770Z,3.83
2022-08-31T16:51:24.382Z,1.92
2022-08-31T16:54:28.437Z,1.73
2022-08-31T17:00:37.368Z,2.58
2022-08-31T17:03:51.992Z,4.55
2022-08-31T17:06:54.337Z,2.20
2022-08-31T17:09:58.980Z,2.58
2022-08-31T17:13:00.476Z,1.98
2022-08-31T17:16:02.632Z,6.45
2022-08-31T17:19:11.369Z,2.28
2022-08-31T17:22:23.375Z,2.20
2022-08-31T17:25:26.228Z,2.08
2022-08-31T17:28:27.679Z,2.20
2022-08-31T17:31:32.965Z,2.20
2022-08-31T17:34:36.727Z,1.75
2022-08-31T17:37:38.501Z,1.80
2022-08-31T17:40:40.134Z,2.78
2022-08-31T17:43:42.119Z,4.25
2022-08-31T17:46:47.137Z,2.03
2022-08-31T17:49:50.571Z,2.17
2022-08-31T17:52:54.002Z,2.38
2022-08-31T17:55:55.829Z,2.63
2022-08-31T17:58:57.350Z,3.28
2022-08-31T18:02:02.639Z,2.97
2022-08-31T18:05:11.583Z,3.83
2022-08-31T18:08:14.670Z,3.22
2022-08-31T18:11:16.242Z,3.60
2022-08-31T18:14:23.486Z,3.53
2022-08-31T18:17:26.446Z,3.50
2022-08-31T18:20:28.394Z,6.72
2022-08-31T18:23:29.832Z,3.67
2022-08-31T18:26:34.800Z,5.80
2022-08-31T18:29:37.917Z,4.32
2022-08-31T18:32:47.287Z,6.03
2022-08-31T18:35:50.617Z,4.38
2022-08-31T18:38:55.196Z,3.92
2022-08-31T18:42:15.578Z,5.80
2022-08-31T18:45:19.219Z,6.28
2022-08-31T18:48:35.125Z,7.38
2022-08-31T18:51:36.865Z,6.13
2022-08-31T18:54:38.420Z,7.45
2022-08-31T18:57:48.770Z,8.60
2022-08-31T19:00:57.262Z,6.65
2022-08-31T19:04:00.922Z,5.53
2022-08-31T19:07:03.656Z,6.78
2022-08-31T19:10:12.127Z,4.63
2022-08-31T19:13:15.471Z,6.28
2022-08-31T19:16:23.353Z,5.38
2022-08-31T19:19:25.416Z,5.57
2022-08-31T19:22:27.925Z,5.25
2022-08-31T19:25:31.818Z,4.05
2022-08-31T19:28:33.361Z,4.65
2022-08-31T19:31:38.496Z,4.53
2022-08-31T19:34:43.107Z,5.80
2022-08-31T19:37:44.635Z,4.13
2022-08-31T19:40:46.469Z,5.38
2022-08-31T19:44:01.925Z,3.78
2022-08-31T19:47:08.564Z,2.95
2022-08-31T19:50:26.343Z,3.97
2022-08-31T19:53:28.232Z,4.47
2022-08-31T19:56:31.027Z,4.20
2022-08-31T19:59:32.557Z,4.00
2022-08-31T20:02:36.167Z,2.95
2022-08-31T20:05:41.748Z,3.63
2022-08-31T20:08:44.257Z,3.05
2022-08-31T20:11:49.296Z,3.22
2022-08-31T20:14:51.273Z,2.25
2022-08-31T20:17:57.114Z,2.22
2022-08-31T20:21:01.026Z,5.32
2022-08-31T20:24:06.242Z,5.40
2022-08-31T20:27:10.446Z,3.50
2022-08-31T20:30:13.603Z,4.93
2022-08-31T20:33:15.772Z,4.00
2022-08-31T20:36:20.495Z,3.17
2022-08-31T20:39:25.123Z,3.65
2022-08-31T20:42:27.328Z,3.58
2022-08-31T20:45:28.790Z,3.95
2022-08-31T20:48:49.076Z,3.35
2022-08-31T20:51:51.702Z,3.47
2022-08-31T20:55:01.465Z,4.85
2022-08-31T20:58:05.522Z,2.67
2022-08-31T21:01:07.747Z,2.53
2022-08-31T21:04:09.369Z,4.22
2022-08-31T21:07:12.278Z,2.15
2022-08-31T21:10:14.361Z,2.85
2022-08-31T21:13:16.736Z,3.80
2022-08-31T21:16:19.491Z,2.65
2022-08-31T21:19:22.751Z,3.08
2022-08-31T21:22:25.788Z,3.47
2022-08-31T21:25:27.364Z,2.63
2022-08-31T21:28:29.604Z,2.67
2022-08-31T21:31:31.228Z,2.83
2022-08-31T21:34:33.786Z,5.65
2022-08-31T21:37:35.402Z,2.88
2022-08-31T21:40:37.053Z,2.10
2022-08-31T21:43:39.808Z,1.90
2022-08-31T21:46:41.588Z,1.45
2022-08-31T21:49:44.528Z,3.95
2022-08-31T21:52:45.972Z,3.38
2022-08-31T21:55:47.421Z,4.45
2022-08-31T21:58:50.001Z,2.20
2022-08-31T22:01:59.008Z,2.15
2022-08-31T22:05:00.689Z,1.58
2022-08-31T22:08:02.465Z,1.92
2022-08-31T22:11:08.868Z,2.92
2022-08-31T22:14:12.236Z,2.88
2022-08-31T22:17:14.675Z,4.65
2022-08-31T22:20:17.662Z,2.38
2022-08-31T22:23:20.141Z,3.00
2022-08-31T22:26:24.414Z,1.88
2022-08-31T22:29:29.242Z,2.28
2022-08-31T22:32:30.652Z,1.23
2022-08-31T22:35:37.823Z,1.42
2022-08-31T22:38:39.764Z,1.92
2022-08-31T22:41:41.654Z,1.63
2022-08-31T22:44:43.623Z,1.48
2022-08-31T22:47:49.774Z,1.65
2022-08-31T22:50:51.780Z,1.98
2022-08-31T22:53:53.284Z,1.67
2022-08-31T22:56:55.202Z,2.15
2022-08-31T22:59:56.699Z,2.20
2022-08-31T23:02:59.242Z,2.47
2022-08-31T23:06:01.381Z,1.35
2022-08-31T23:09:06.873Z,1.23
2022-08-31T23:12:08.716Z,2.05
2022-08-31T23:15:12.804Z,1.50
2022-08-31T23:18:14.292Z,2.10
2022-08-31T23:21:17.917Z,2.17
2022-08-31T23:24:23.654Z,3.85
2022-08-31T23:27:25.338Z,1.55
2022-08-31T23:30:27.195Z,0.88
2022-08-31T23:33:29.345Z,1.40
2022-08-31T23:36:31.821Z,1.77
2022-08-31T23:39:34.702Z,1.85
2022-08-31T23:42:41.032Z,1.38
2022-08-31T23:45:42.679Z,1.88
2022-08-31T23:48:44.103Z,1.30
2022-08-31T23:51:46.194Z,2.08
2022-08-31T23:54:49.825Z,2.50
2022-08-31T23:57:51.698Z,1.70
